sensor_id;sensor_type;location;lat;lon;timestamp;P1;durP1;ratioP1;P2;durP2;ratioP2
18580;SDS011;9420;50.876;7.012;2023-03-14T00:01:12;5.60;;;1.53;;
18580;SDS011;9420;50.876;7.012;2023-03-14T00:03:41;7.13;;;1.27;;
18580;SDS011;9420;50.876;7.012;2023-03-14T00:06:11;4.73;;;1.10;;
18580;SDS011;9420;50.876;7.012;2023-03-14T00:08:39;7.63;;;1.37;;
18580;SDS011;9420;50.876;7.012;2023-03-14T00:11:08;10.53;;;1.83;;
18580;SDS011;9420;50.876;7.012;2023-03-14T00:13:38;4.67;;;1.50;;
18580;SDS011;9420;50.876;7.012;2023-03-14T00:16:06;5.47;;;1.60;;
18580;SDS011;9420;50.876;7.012;2023-03-14T00:18:37;6.77;;;1.47;;
18580;SDS011;9420;50.876;7.012;2023-03-14T00:21:06;6.20;;;2.07;;
18580;SDS011;9420;50.876;7.012;2023-03-14T00:23:37;8.10;;;1.80;;
18580;SDS011;9420;50.876;7.012;2023-03-14T00:26:08;10.40;;;1.87;;
18580;SDS011;9420;50.876;7.012;2023-03-14T00:28:38;6.57;;;1.60;;
18580;SDS011;9420;50.876;7.012;2023-03-14T00:31:06;6.70;;;1.47;;
18580;SDS011;9420;50.876;7.012;2023-03-14T00:33:37;4.27;;;1.17;;
18580;SDS011;9420;50.876;7.012;2023-03-14T00:36:06;7.87;;;1.67;;
18580;SDS011;9420;50.876;7.012;2023-03-14T00:38:38;10.73;;;1.97;;
18580;SDS011;9420;50.876;7.012;2023-03-14T00:41:06;4.93;;;1.60;;
18580;SDS011;9420;50.876;7.012;2023-03-14T00:43:35;6.47;;;1.50;;
18580;SDS011;9420;50.876;7.012;2023-03-14T00:46:03;8.53;;;1.80;;
18580;SDS011;9420;50.876;7.012;2023-03-14T00:48:31;6.93;;;1.83;;
18580;SDS011;9420;50.876;7.012;2023-03-14T00:51:00;5.70;;;1.23;;
18580;SDS011;9420;50.876;7.012;2023-03-14T00:53:27;2.97;;;1.20;;
18580;SDS011;9420;50.876;7.012;2023-03-14T00:55:56;5.87;;;1.33;;
18580;SDS011;9420;50.876;7.012;2023-03-14T00:58:29;11.73;;;1.47;;
18580;SDS011;9420;50.876;7.012;2023-03-14T01:00:56;4.67;;;1.83;;
18580;SDS011;9420;50.876;7.012;2023-03-14T01:03:23;4.50;;;1.43;;
18580;SDS011;9420;50.876;7.012;2023-03-14T01:05:50;8.07;;;1.70;;
18580;SDS011;9420;50.876;7.012;2023-03-14T01:08:17;4.70;;;1.50;;
18580;SDS011;9420;50.876;7.012;2023-03-14T01:10:44;7.53;;;1.40;;
18580;SDS011;9420;50.876;7.012;2023-03-14T01:13:13;4.50;;;1.27;;
18580;SDS011;9420;50.876;7.012;2023-03-14T01:15:40;4.73;;;1.47;;
18580;SDS011;9420;50.876;7.012;2023-03-14T01:18:07;5.60;;;1.50;;
18580;SDS011;9420;50.876;7.012;2023-03-14T01:20:36;7.70;;;1.50;;
18580;SDS011;9420;50.876;7.012;2023-03-14T01:23:03;3.57;;;1.13;;
18580;SDS011;9420;50.876;7.012;2023-03-14T01:25:30;7.13;;;1.90;;
18580;SDS011;9420;50.876;7.012;2023-03-14T01:27:57;3.90;;;1.40;;
18580;SDS011;9420;50.876;7.012;2023-03-14T01:30:27;9.83;;;2.43;;
18580;SDS011;9420;50.876;7.012;2023-03-14T01:32:54;8.53;;;2.10;;
18580;SDS011;9420;50.876;7.012;2023-03-14T01:35:26;5.07;;;1.33;;
18580;SDS011;9420;50.876;7.012;2023-03-14T01:37:54;5.23;;;1.80;;
18580;SDS011;9420;50.876;7.012;2023-03-14T01:40:24;4.93;;;1.43;;
18580;SDS011;9420;50.876;7.012;2023-03-14T01:43:00;2.67;;;0.97;;
18580;SDS011;9420;50.876;7.012;2023-03-14T01:49:03;7.00;;;1.17;;
18580;SDS011;9420;50.876;7.012;2023-03-14T01:51:41;3.70;;;1.80;;
18580;SDS011;9420;50.876;7.012;2023-03-14T01:54:17;3.43;;;1.23;;
18580;SDS011;9420;50.876;7.012;2023-03-14T01:56:53;2.27;;;0.90;;
18580;SDS011;9420;50.876;7.012;2023-03-14T01:59:26;2.90;;;1.27;;
18580;SDS011;9420;50.876;7.012;2023-03-14T02:01:59;8.53;;;2.07;;
18580;SDS011;9420;50.876;7.012;2023-03-14T02:04:28;5.13;;;1.67;;
18580;SDS011;9420;50.876;7.012;2023-03-14T02:07:03;7.33;;;2.10;;
18580;SDS011;9420;50.876;7.012;2023-03-14T02:09:38;4.20;;;1.50;;
18580;SDS011;9420;50.876;7.012;2023-03-14T02:12:06;2.73;;;1.20;;
18580;SDS011;9420;50.876;7.012;2023-03-14T02:14:36;3.43;;;1.33;;
18580;SDS011;9420;50.876;7.012;2023-03-14T02:17:05;2.43;;;0.87;;
18580;SDS011;9420;50.876;7.012;2023-03-14T02:19:36;9.13;;;1.63;;
18580;SDS011;9420;50.876;7.012;2023-03-14T02:22:23;1.83;;;0.70;;
18580;SDS011;9420;50.876;7.012;2023-03-14T02:24:55;3.80;;;0.87;;
18580;SDS011;9420;50.876;7.012;2023-03-14T02:27:31;6.47;;;0.80;;
18580;SDS011;9420;50.876;7.012;2023-03-14T02:30:00;3.17;;;1.10;;
18580;SDS011;9420;50.876;7.012;2023-03-14T02:32:33;3.50;;;1.23;;
18580;SDS011;9420;50.876;7.012;2023-03-14T02:35:05;2.87;;;0.60;;
18580;SDS011;9420;50.876;7.012;2023-03-14T02:37:39;2.13;;;0.60;;
18580;SDS011;9420;50.876;7.012;2023-03-14T02:40:14;6.23;;;0.87;;
18580;SDS011;9420;50.876;7.012;2023-03-14T02:42:43;2.97;;;0.60;;
18580;SDS011;9420;50.876;7.012;2023-03-14T02:45:31;2.07;;;0.70;;
18580;SDS011;9420;50.876;7.012;2023-03-14T02:48:10;3.43;;;0.47;;
18580;SDS011;9420;50.876;7.012;2023-03-14T02:50:42;3.27;;;0.70;;
18580;SDS011;9420;50.876;7.012;2023-03-14T02:53:13;2.30;;;0.90;;
18580;SDS011;9420;50.876;7.012;2023-03-14T02:55:44;2.97;;;1.00;;
18580;SDS011;9420;50.876;7.012;2023-03-14T02:58:14;6.70;;;1.33;;
18580;SDS011;9420;50.876;7.012;2023-03-14T03:00:42;5.53;;;0.60;;
18580;SDS011;9420;50.876;7.012;2023-03-14T03:03:09;6.27;;;1.10;;
18580;SDS011;9420;50.876;7.012;2023-03-14T03:05:37;1.83;;;0.80;;
18580;SDS011;9420;50.876;7.012;2023-03-14T03:08:04;3.90;;;1.17;;
18580;SDS011;9420;50.876;7.012;2023-03-14T03:10:32;3.43;;;1.27;;
18580;SDS011;9420;50.876;7.012;2023-03-14T03:12:59;8.47;;;1.23;;
18580;SDS011;9420;50.876;7.012;2023-03-14T03:15:28;7.40;;;1.33;;
18580;SDS011;9420;50.876;7.012;2023-03-14T03:17:55;5.20;;;1.60;;
18580;SDS011;9420;50.876;7.012;2023-03-14T03:20:23;10.47;;;2.03;;
18580;SDS011;9420;50.876;7.012;2023-03-14T03:22:50;5.97;;;1.27;;
18580;SDS011;9420;50.876;7.012;2023-03-14T03:25:17;4.40;;;1.37;;
18580;SDS011;9420;50.876;7.012;2023-03-14T03:27:44;6.33;;;1.77;;
18580;SDS011;9420;50.876;7.012;2023-03-14T03:30:12;6.27;;;1.53;;
18580;SDS011;9420;50.876;7.012;2023-03-14T03:32:41;5.60;;;2.00;;
18580;SDS011;9420;50.876;7.012;2023-03-14T03:35:08;8.33;;;1.63;;
18580;SDS011;9420;50.876;7.012;2023-03-14T03:37:36;9.17;;;1.67;;
18580;SDS011;9420;50.876;7.012;2023-03-14T03:40:04;4.43;;;1.30;;
18580;SDS011;9420;50.876;7.012;2023-03-14T03:42:34;5.53;;;1.60;;
18580;SDS011;9420;50.876;7.012;2023-03-14T03:45:02;10.97;;;1.63;;
18580;SDS011;9420;50.876;7.012;2023-03-14T03:47:30;4.40;;;1.83;;
18580;SDS011;9420;50.876;7.012;2023-03-14T03:49:59;8.93;;;1.90;;
18580;SDS011;9420;50.876;7.012;2023-03-14T03:52:26;10.67;;;1.77;;
18580;SDS011;9420;50.876;7.012;2023-03-14T03:54:53;10.77;;;2.60;;
18580;SDS011;9420;50.876;7.012;2023-03-14T03:57:20;9.20;;;2.20;;
18580;SDS011;9420;50.876;7.012;2023-03-14T03:59:47;4.63;;;1.37;;
18580;SDS011;9420;50.876;7.012;2023-03-14T04:02:14;4.93;;;1.73;;
18580;SDS011;9420;50.876;7.012;2023-03-14T04:04:41;8.70;;;1.83;;
18580;SDS011;9420;50.876;7.012;2023-03-14T04:07:09;5.40;;;1.30;;
18580;SDS011;9420;50.876;7.012;2023-03-14T04:09:38;5.67;;;2.17;;
18580;SDS011;9420;50.876;7.012;2023-03-14T04:12:06;8.63;;;1.57;;
18580;SDS011;9420;50.876;7.012;2023-03-14T04:14:33;7.27;;;1.17;;
18580;SDS011;9420;50.876;7.012;2023-03-14T04:17:00;7.17;;;1.20;;
18580;SDS011;9420;50.876;7.012;2023-03-14T04:19:27;8.20;;;1.20;;
18580;SDS011;9420;50.876;7.012;2023-03-14T04:21:54;4.60;;;1.30;;
18580;SDS011;9420;50.876;7.012;2023-03-14T04:24:22;8.13;;;0.87;;
18580;SDS011;9420;50.876;7.012;2023-03-14T04:26:49;3.93;;;1.40;;
18580;SDS011;9420;50.876;7.012;2023-03-14T04:29:16;10.53;;;1.90;;
18580;SDS011;9420;50.876;7.012;2023-03-14T04:31:43;6.10;;;1.57;;
18580;SDS011;9420;50.876;7.012;2023-03-14T04:34:10;19.27;;;2.10;;
18580;SDS011;9420;50.876;7.012;2023-03-14T04:36:37;5.70;;;1.90;;
18580;SDS011;9420;50.876;7.012;2023-03-14T04:39:04;11.27;;;2.23;;
18580;SDS011;9420;50.876;7.012;2023-03-14T04:41:33;6.53;;;2.43;;
18580;SDS011;9420;50.876;7.012;2023-03-14T04:44:00;3.23;;;1.90;;
18580;SDS011;9420;50.876;7.012;2023-03-14T04:46:28;7.13;;;1.10;;
18580;SDS011;9420;50.876;7.012;2023-03-14T04:48:55;6.63;;;1.80;;
18580;SDS011;9420;50.876;7.012;2023-03-14T04:51:22;5.70;;;1.13;;
18580;SDS011;9420;50.876;7.012;2023-03-14T04:53:52;4.80;;;1.10;;
18580;SDS011;9420;50.876;7.012;2023-03-14T04:56:21;4.97;;;1.37;;
18580;SDS011;9420;50.876;7.012;2023-03-14T04:58:52;5.07;;;1.17;;
18580;SDS011;9420;50.876;7.012;2023-03-14T05:01:19;2.10;;;1.23;;
18580;SDS011;9420;50.876;7.012;2023-03-14T05:03:46;3.83;;;1.47;;
18580;SDS011;9420;50.876;7.012;2023-03-14T05:06:13;4.37;;;1.10;;
18580;SDS011;9420;50.876;7.012;2023-03-14T05:08:40;3.23;;;0.70;;
18580;SDS011;9420;50.876;7.012;2023-03-14T05:11:09;3.80;;;0.63;;
18580;SDS011;9420;50.876;7.012;2023-03-14T05:13:37;3.60;;;0.90;;
18580;SDS011;9420;50.876;7.012;2023-03-14T05:16:06;3.67;;;1.03;;
18580;SDS011;9420;50.876;7.012;2023-03-14T05:18:36;2.50;;;0.67;;
18580;SDS011;9420;50.876;7.012;2023-03-14T05:21:03;1.17;;;0.60;;
18580;SDS011;9420;50.876;7.012;2023-03-14T05:23:31;3.03;;;1.27;;
18580;SDS011;9420;50.876;7.012;2023-03-14T05:25:58;5.10;;;0.40;;
18580;SDS011;9420;50.876;7.012;2023-03-14T05:28:25;0.80;;;0.43;;
18580;SDS011;9420;50.876;7.012;2023-03-14T05:30:53;0.80;;;0.30;;
18580;SDS011;9420;50.876;7.012;2023-03-14T05:33:21;3.23;;;0.50;;
18580;SDS011;9420;50.876;7.012;2023-03-14T05:35:48;0.93;;;0.27;;
18580;SDS011;9420;50.876;7.012;2023-03-14T05:38:15;0.67;;;0.20;;
18580;SDS011;9420;50.876;7.012;2023-03-14T05:40:44;0.40;;;0.27;;
18580;SDS011;9420;50.876;7.012;2023-03-14T05:43:12;0.40;;;0.40;;
18580;SDS011;9420;50.876;7.012;2023-03-14T05:45:40;0.63;;;0.53;;
18580;SDS011;9420;50.876;7.012;2023-03-14T05:48:07;1.07;;;0.40;;
18580;SDS011;9420;50.876;7.012;2023-03-14T05:50:36;1.30;;;0.33;;
18580;SDS011;9420;50.876;7.012;2023-03-14T05:53:03;0.93;;;0.17;;
18580;SDS011;9420;50.876;7.012;2023-03-14T05:55:31;0.57;;;0.20;;
18580;SDS011;9420;50.876;7.012;2023-03-14T05:57:58;0.63;;;0.20;;
18580;SDS011;9420;50.876;7.012;2023-03-14T06:00:25;0.87;;;0.10;;
18580;SDS011;9420;50.876;7.012;2023-03-14T06:02:53;0.27;;;0.27;;
18580;SDS011;9420;50.876;7.012;2023-03-14T06:05:20;0.40;;;0.30;;
18580;SDS011;9420;50.876;7.012;2023-03-14T06:07:50;0.20;;;0.20;;
18580;SDS011;9420;50.876;7.012;2023-03-14T06:10:17;0.07;;;0.07;;
18580;SDS011;9420;50.876;7.012;2023-03-14T06:12:45;0.20;;;0.10;;
18580;SDS011;9420;50.876;7.012;2023-03-14T06:15:12;1.80;;;0.57;;
18580;SDS011;9420;50.876;7.012;2023-03-14T06:17:40;0.97;;;0.20;;
18580;SDS011;9420;50.876;7.012;2023-03-14T06:20:07;1.53;;;0.27;;
18580;SDS011;9420;50.876;7.012;2023-03-14T06:22:36;1.33;;;0.20;;
18580;SDS011;9420;50.876;7.012;2023-03-14T06:25:06;1.13;;;0.20;;
18580;SDS011;9420;50.876;7.012;2023-03-14T06:27:34;0.83;;;0.30;;
18580;SDS011;9420;50.876;7.012;2023-03-14T06:30:01;0.10;;;0.10;;
18580;SDS011;9420;50.876;7.012;2023-03-14T06:32:30;0.10;;;0.10;;
18580;SDS011;9420;50.876;7.012;2023-03-14T06:34:57;0.93;;;0.20;;
18580;SDS011;9420;50.876;7.012;2023-03-14T06:37:26;3.37;;;0.30;;
18580;SDS011;9420;50.876;7.012;2023-03-14T06:39:53;0.10;;;0.10;;
18580;SDS011;9420;50.876;7.012;2023-03-14T06:42:22;0.43;;;0.20;;
18580;SDS011;9420;50.876;7.012;2023-03-14T06:44:49;0.77;;;0.33;;
18580;SDS011;9420;50.876;7.012;2023-03-14T06:47:16;0.30;;;0.20;;
18580;SDS011;9420;50.876;7.012;2023-03-14T06:49:43;0.50;;;0.20;;
18580;SDS011;9420;50.876;7.012;2023-03-14T06:52:10;0.57;;;0.30;;
18580;SDS011;9420;50.876;7.012;2023-03-14T06:54:38;0.20;;;0.20;;
18580;SDS011;9420;50.876;7.012;2023-03-14T06:57:05;0.40;;;0.23;;
18580;SDS011;9420;50.876;7.012;2023-03-14T06:59:33;0.73;;;0.20;;
18580;SDS011;9420;50.876;7.012;2023-03-14T07:02:00;0.40;;;0.30;;
18580;SDS011;9420;50.876;7.012;2023-03-14T07:04:28;0.50;;;0.20;;
18580;SDS011;9420;50.876;7.012;2023-03-14T07:06:55;1.57;;;0.50;;
18580;SDS011;9420;50.876;7.012;2023-03-14T07:09:22;0.60;;;0.50;;
18580;SDS011;9420;50.876;7.012;2023-03-14T07:11:49;1.07;;;0.20;;
18580;SDS011;9420;50.876;7.012;2023-03-14T07:14:16;0.30;;;0.20;;
18580;SDS011;9420;50.876;7.012;2023-03-14T07:16:45;0.50;;;0.20;;
18580;SDS011;9420;50.876;7.012;2023-03-14T07:19:12;0.33;;;0.27;;
18580;SDS011;9420;50.876;7.012;2023-03-14T07:21:40;0.20;;;0.10;;
18580;SDS011;9420;50.876;7.012;2023-03-14T07:24:08;0.10;;;0.10;;
18580;SDS011;9420;50.876;7.012;2023-03-14T07:26:35;0.30;;;0.20;;
18580;SDS011;9420;50.876;7.012;2023-03-14T07:29:02;0.10;;;0.10;;
18580;SDS011;9420;50.876;7.012;2023-03-14T07:31:29;1.00;;;0.30;;
18580;SDS011;9420;50.876;7.012;2023-03-14T07:33:59;0.30;;;0.20;;
18580;SDS011;9420;50.876;7.012;2023-03-14T07:36:26;0.37;;;0.30;;
18580;SDS011;9420;50.876;7.012;2023-03-14T07:38:53;1.13;;;0.13;;
18580;SDS011;9420;50.876;7.012;2023-03-14T07:41:20;0.93;;;0.50;;
18580;SDS011;9420;50.876;7.012;2023-03-14T07:43:48;0.90;;;0.50;;
18580;SDS011;9420;50.876;7.012;2023-03-14T07:46:15;0.83;;;0.30;;
18580;SDS011;9420;50.876;7.012;2023-03-14T07:48:42;1.30;;;0.60;;
18580;SDS011;9420;50.876;7.012;2023-03-14T07:51:11;1.17;;;0.30;;
18580;SDS011;9420;50.876;7.012;2023-03-14T07:53:38;1.00;;;0.40;;
18580;SDS011;9420;50.876;7.012;2023-03-14T07:56:05;0.93;;;0.30;;
18580;SDS011;9420;50.876;7.012;2023-03-14T07:58:33;0.40;;;0.30;;
18580;SDS011;9420;50.876;7.012;2023-03-14T08:01:00;0.30;;;0.20;;
18580;SDS011;9420;50.876;7.012;2023-03-14T08:03:28;3.50;;;0.37;;
18580;SDS011;9420;50.876;7.012;2023-03-14T08:05:55;0.50;;;0.40;;
18580;SDS011;9420;50.876;7.012;2023-03-14T08:08:24;1.07;;;0.40;;
18580;SDS011;9420;50.876;7.012;2023-03-14T08:10:51;0.37;;;0.20;;
18580;SDS011;9420;50.876;7.012;2023-03-14T08:13:18;0.33;;;0.23;;
18580;SDS011;9420;50.876;7.012;2023-03-14T08:15:47;0.43;;;0.20;;
18580;SDS011;9420;50.876;7.012;2023-03-14T08:18:16;0.70;;;0.37;;
18580;SDS011;9420;50.876;7.012;2023-03-14T08:20:43;0.40;;;0.30;;
18580;SDS011;9420;50.876;7.012;2023-03-14T08:23:10;1.20;;;0.30;;
18580;SDS011;9420;50.876;7.012;2023-03-14T08:25:38;1.70;;;0.20;;
18580;SDS011;9420;50.876;7.012;2023-03-14T08:28:05;1.10;;;0.30;;
18580;SDS011;9420;50.876;7.012;2023-03-14T08:30:33;0.33;;;0.30;;
18580;SDS011;9420;50.876;7.012;2023-03-14T08:33:00;0.30;;;0.17;;
18580;SDS011;9420;50.876;7.012;2023-03-14T08:35:27;1.47;;;0.30;;
18580;SDS011;9420;50.876;7.012;2023-03-14T08:37:54;0.57;;;0.37;;
18580;SDS011;9420;50.876;7.012;2023-03-14T08:40:22;1.13;;;0.30;;
18580;SDS011;9420;50.876;7.012;2023-03-14T08:42:50;0.50;;;0.30;;
18580;SDS011;9420;50.876;7.012;2023-03-14T08:45:17;0.40;;;0.33;;
18580;SDS011;9420;50.876;7.012;2023-03-14T08:47:45;0.70;;;0.40;;
18580;SDS011;9420;50.876;7.012;2023-03-14T08:50:12;1.10;;;0.57;;
18580;SDS011;9420;50.876;7.012;2023-03-14T08:52:39;0.93;;;0.33;;
18580;SDS011;9420;50.876;7.012;2023-03-14T08:55:07;0.40;;;0.40;;
18580;SDS011;9420;50.876;7.012;2023-03-14T08:57:35;0.20;;;0.20;;
18580;SDS011;9420;50.876;7.012;2023-03-14T09:00:05;0.80;;;0.40;;
18580;SDS011;9420;50.876;7.012;2023-03-14T09:02:37;0.73;;;0.37;;
18580;SDS011;9420;50.876;7.012;2023-03-14T09:05:04;0.30;;;0.20;;
18580;SDS011;9420;50.876;7.012;2023-03-14T09:07:33;0.77;;;0.40;;
18580;SDS011;9420;50.876;7.012;2023-03-14T09:10:01;0.40;;;0.40;;
18580;SDS011;9420;50.876;7.012;2023-03-14T09:12:28;0.37;;;0.30;;
18580;SDS011;9420;50.876;7.012;2023-03-14T09:14:56;1.03;;;0.70;;
18580;SDS011;9420;50.876;7.012;2023-03-14T09:17:24;0.87;;;0.50;;
18580;SDS011;9420;50.876;7.012;2023-03-14T09:19:52;2.20;;;0.90;;
18580;SDS011;9420;50.876;7.012;2023-03-14T09:22:19;1.23;;;0.63;;
18580;SDS011;9420;50.876;7.012;2023-03-14T09:24:46;0.50;;;0.33;;
18580;SDS011;9420;50.876;7.012;2023-03-14T09:27:13;1.00;;;0.40;;
18580;SDS011;9420;50.876;7.012;2023-03-14T09:29:40;0.20;;;0.17;;
18580;SDS011;9420;50.876;7.012;2023-03-14T09:32:09;0.80;;;0.20;;
18580;SDS011;9420;50.876;7.012;2023-03-14T09:34:37;0.30;;;0.20;;
18580;SDS011;9420;50.876;7.012;2023-03-14T09:37:04;0.50;;;0.33;;
18580;SDS011;9420;50.876;7.012;2023-03-14T09:39:31;1.33;;;0.20;;
18580;SDS011;9420;50.876;7.012;2023-03-14T09:41:58;1.57;;;0.30;;
18580;SDS011;9420;50.876;7.012;2023-03-14T09:44:32;0.27;;;0.20;;
18580;SDS011;9420;50.876;7.012;2023-03-14T09:47:04;0.63;;;0.37;;
18580;SDS011;9420;50.876;7.012;2023-03-14T09:49:40;3.90;;;0.83;;
18580;SDS011;9420;50.876;7.012;2023-03-14T09:52:10;1.20;;;0.50;;
18580;SDS011;9420;50.876;7.012;2023-03-14T09:54:42;3.67;;;1.07;;
18580;SDS011;9420;50.876;7.012;2023-03-14T09:57:15;0.50;;;0.50;;
18580;SDS011;9420;50.876;7.012;2023-03-14T09:59:45;3.73;;;0.67;;
18580;SDS011;9420;50.876;7.012;2023-03-14T10:02:17;1.90;;;0.80;;
18580;SDS011;9420;50.876;7.012;2023-03-14T10:04:49;1.57;;;0.73;;
18580;SDS011;9420;50.876;7.012;2023-03-14T10:07:19;1.70;;;1.17;;
18580;SDS011;9420;50.876;7.012;2023-03-14T10:09:54;0.73;;;0.60;;
18580;SDS011;9420;50.876;7.012;2023-03-14T10:12:30;2.97;;;0.80;;
18580;SDS011;9420;50.876;7.012;2023-03-14T10:14:58;5.37;;;1.17;;
18580;SDS011;9420;50.876;7.012;2023-03-14T10:17:38;3.07;;;1.23;;
18580;SDS011;9420;50.876;7.012;2023-03-14T10:20:14;1.57;;;1.30;;
18580;SDS011;9420;50.876;7.012;2023-03-14T10:22:58;1.50;;;1.40;;
18580;SDS011;9420;50.876;7.012;2023-03-14T10:25:28;2.23;;;1.50;;
18580;SDS011;9420;50.876;7.012;2023-03-14T10:27:57;3.77;;;1.43;;
18580;SDS011;9420;50.876;7.012;2023-03-14T10:30:38;2.40;;;1.20;;
18580;SDS011;9420;50.876;7.012;2023-03-14T10:33:11;1.77;;;1.37;;
18580;SDS011;9420;50.876;7.012;2023-03-14T10:35:53;1.90;;;1.20;;
18580;SDS011;9420;50.876;7.012;2023-03-14T10:38:26;1.70;;;1.20;;
18580;SDS011;9420;50.876;7.012;2023-03-14T10:40:55;2.10;;;1.57;;
18580;SDS011;9420;50.876;7.012;2023-03-14T10:43:24;2.13;;;1.67;;
18580;SDS011;9420;50.876;7.012;2023-03-14T10:45:57;1.87;;;1.63;;
18580;SDS011;9420;50.876;7.012;2023-03-14T10:48:31;1.90;;;1.80;;
18580;SDS011;9420;50.876;7.012;2023-03-14T10:51:06;1.63;;;1.50;;
18580;SDS011;9420;50.876;7.012;2023-03-14T10:53:39;3.53;;;2.00;;
18580;SDS011;9420;50.876;7.012;2023-03-14T10:56:12;4.97;;;2.10;;
18580;SDS011;9420;50.876;7.012;2023-03-14T10:58:43;4.53;;;2.70;;
18580;SDS011;9420;50.876;7.012;2023-03-14T11:01:16;3.87;;;2.60;;
18580;SDS011;9420;50.876;7.012;2023-03-14T11:04:13;4.63;;;2.30;;
18580;SDS011;9420;50.876;7.012;2023-03-14T11:06:59;4.90;;;2.00;;
18580;SDS011;9420;50.876;7.012;2023-03-14T11:09:36;3.07;;;2.67;;
18580;SDS011;9420;50.876;7.012;2023-03-14T11:12:15;2.03;;;1.60;;
18580;SDS011;9420;50.876;7.012;2023-03-14T11:15:04;5.13;;;1.90;;
18580;SDS011;9420;50.876;7.012;2023-03-14T11:17:46;3.03;;;1.30;;
18580;SDS011;9420;50.876;7.012;2023-03-14T11:20:35;1.20;;;1.10;;
18580;SDS011;9420;50.876;7.012;2023-03-14T11:23:12;2.90;;;1.50;;
18580;SDS011;9420;50.876;7.012;2023-03-14T11:25:47;1.33;;;1.10;;
18580;SDS011;9420;50.876;7.012;2023-03-14T11:28:28;1.87;;;1.27;;
18580;SDS011;9420;50.876;7.012;2023-03-14T11:31:04;3.60;;;1.80;;
18580;SDS011;9420;50.876;7.012;2023-03-14T11:33:45;5.13;;;1.83;;
18580;SDS011;9420;50.876;7.012;2023-03-14T11:36:24;3.33;;;1.37;;
18580;SDS011;9420;50.876;7.012;2023-03-14T11:39:00;1.60;;;1.27;;
18580;SDS011;9420;50.876;7.012;2023-03-14T11:41:29;3.03;;;1.77;;
18580;SDS011;9420;50.876;7.012;2023-03-14T11:44:03;3.93;;;1.60;;
18580;SDS011;9420;50.876;7.012;2023-03-14T11:46:42;4.20;;;1.53;;
18580;SDS011;9420;50.876;7.012;2023-03-14T11:49:19;4.33;;;2.17;;
18580;SDS011;9420;50.876;7.012;2023-03-14T11:51:58;2.40;;;1.47;;
18580;SDS011;9420;50.876;7.012;2023-03-14T11:54:34;1.13;;;0.40;;
18580;SDS011;9420;50.876;7.012;2023-03-14T11:57:10;0.33;;;0.20;;
18580;SDS011;9420;50.876;7.012;2023-03-14T11:59:44;0.50;;;0.20;;
18580;SDS011;9420;50.876;7.012;2023-03-14T12:02:21;1.37;;;0.53;;
18580;SDS011;9420;50.876;7.012;2023-03-14T12:05:13;0.50;;;0.40;;
18580;SDS011;9420;50.876;7.012;2023-03-14T12:08:03;0.60;;;0.47;;
18580;SDS011;9420;50.876;7.012;2023-03-14T12:11:08;0.60;;;0.40;;
18580;SDS011;9420;50.876;7.012;2023-03-14T12:13:40;2.47;;;0.83;;
18580;SDS011;9420;50.876;7.012;2023-03-14T12:19:15;1.70;;;0.90;;
18580;SDS011;9420;50.876;7.012;2023-03-14T12:21:56;4.87;;;1.33;;
18580;SDS011;9420;50.876;7.012;2023-03-14T12:24:33;2.53;;;1.30;;
18580;SDS011;9420;50.876;7.012;2023-03-14T12:27:06;4.23;;;1.57;;
18580;SDS011;9420;50.876;7.012;2023-03-14T12:30:00;5.40;;;2.00;;
18580;SDS011;9420;50.876;7.012;2023-03-14T12:32:27;1.43;;;1.13;;
18580;SDS011;9420;50.876;7.012;2023-03-14T12:34:57;5.33;;;2.20;;
18580;SDS011;9420;50.876;7.012;2023-03-14T12:38:01;3.63;;;1.90;;
18580;SDS011;9420;50.876;7.012;2023-03-14T12:40:35;7.43;;;1.43;;
18580;SDS011;9420;50.876;7.012;2023-03-14T12:43:23;3.23;;;1.60;;
18580;SDS011;9420;50.876;7.012;2023-03-14T12:48:46;1.87;;;1.10;;
18580;SDS011;9420;50.876;7.012;2023-03-14T12:51:15;1.83;;;0.93;;
18580;SDS011;9420;50.876;7.012;2023-03-14T12:53:57;6.43;;;1.23;;
18580;SDS011;9420;50.876;7.012;2023-03-14T12:57:09;3.57;;;1.17;;
18580;SDS011;9420;50.876;7.012;2023-03-14T12:59:55;5.53;;;1.47;;
18580;SDS011;9420;50.876;7.012;2023-03-14T13:02:25;6.03;;;2.37;;
18580;SDS011;9420;50.876;7.012;2023-03-14T13:05:00;6.13;;;0.70;;
18580;SDS011;9420;50.876;7.012;2023-03-14T13:07:35;5.43;;;1.63;;
18580;SDS011;9420;50.876;7.012;2023-03-14T13:10:39;2.77;;;1.60;;
18580;SDS011;9420;50.876;7.012;2023-03-14T13:13:19;3.73;;;1.40;;
18580;SDS011;9420;50.876;7.012;2023-03-14T13:15:53;9.17;;;1.70;;
18580;SDS011;9420;50.876;7.012;2023-03-14T13:18:26;6.83;;;1.83;;
18580;SDS011;9420;50.876;7.012;2023-03-14T13:21:01;1.87;;;1.13;;
18580;SDS011;9420;50.876;7.012;2023-03-14T13:23:34;3.53;;;1.40;;
18580;SDS011;9420;50.876;7.012;2023-03-14T13:26:06;1.57;;;1.20;;
18580;SDS011;9420;50.876;7.012;2023-03-14T13:28:41;5.47;;;1.83;;
18580;SDS011;9420;50.876;7.012;2023-03-14T13:31:18;1.73;;;0.90;;
18580;SDS011;9420;50.876;7.012;2023-03-14T13:33:56;2.00;;;1.17;;
18580;SDS011;9420;50.876;7.012;2023-03-14T13:36:25;5.60;;;1.27;;
18580;SDS011;9420;50.876;7.012;2023-03-14T13:38:57;2.83;;;1.10;;
18580;SDS011;9420;50.876;7.012;2023-03-14T13:41:26;2.63;;;0.73;;
18580;SDS011;9420;50.876;7.012;2023-03-14T13:43:57;3.73;;;1.17;;
18580;SDS011;9420;50.876;7.012;2023-03-14T13:46:33;1.20;;;0.73;;
18580;SDS011;9420;50.876;7.012;2023-03-14T13:49:03;4.47;;;1.00;;
18580;SDS011;9420;50.876;7.012;2023-03-14T13:51:33;3.57;;;1.17;;
18580;SDS011;9420;50.876;7.012;2023-03-14T13:54:01;2.57;;;1.17;;
18580;SDS011;9420;50.876;7.012;2023-03-14T13:56:29;2.47;;;0.93;;
18580;SDS011;9420;50.876;7.012;2023-03-14T13:58:59;4.43;;;0.93;;
18580;SDS011;9420;50.876;7.012;2023-03-14T14:01:26;1.23;;;0.80;;
18580;SDS011;9420;50.876;7.012;2023-03-14T14:04:05;5.13;;;1.20;;
18580;SDS011;9420;50.876;7.012;2023-03-14T14:06:35;7.37;;;1.13;;
18580;SDS011;9420;50.876;7.012;2023-03-14T14:09:09;6.90;;;0.90;;
18580;SDS011;9420;50.876;7.012;2023-03-14T14:11:41;7.03;;;1.73;;
18580;SDS011;9420;50.876;7.012;2023-03-14T14:14:15;7.10;;;1.47;;
18580;SDS011;9420;50.876;7.012;2023-03-14T14:16:48;6.00;;;1.60;;
18580;SDS011;9420;50.876;7.012;2023-03-14T14:19:19;6.50;;;2.13;;
18580;SDS011;9420;50.876;7.012;2023-03-14T14:21:53;11.33;;;2.60;;
18580;SDS011;9420;50.876;7.012;2023-03-14T14:24:22;10.47;;;1.90;;
18580;SDS011;9420;50.876;7.012;2023-03-14T14:26:58;6.60;;;1.77;;
18580;SDS011;9420;50.876;7.012;2023-03-14T14:29:29;10.37;;;2.63;;
18580;SDS011;9420;50.876;7.012;2023-03-14T14:31:59;23.43;;;2.80;;
18580;SDS011;9420;50.876;7.012;2023-03-14T14:34:32;18.43;;;2.90;;
18580;SDS011;9420;50.876;7.012;2023-03-14T14:37:16;12.50;;;2.60;;
18580;SDS011;9420;50.876;7.012;2023-03-14T14:39:49;10.80;;;2.07;;
18580;SDS011;9420;50.876;7.012;2023-03-14T14:42:20;9.50;;;2.23;;
18580;SDS011;9420;50.876;7.012;2023-03-14T14:44:53;14.70;;;2.37;;
18580;SDS011;9420;50.876;7.012;2023-03-14T14:47:23;11.00;;;2.43;;
18580;SDS011;9420;50.876;7.012;2023-03-14T14:49:55;14.63;;;3.10;;
18580;SDS011;9420;50.876;7.012;2023-03-14T14:52:34;14.83;;;2.93;;
18580;SDS011;9420;50.876;7.012;2023-03-14T14:55:16;6.10;;;2.13;;
18580;SDS011;9420;50.876;7.012;2023-03-14T14:57:49;14.40;;;2.63;;
18580;SDS011;9420;50.876;7.012;2023-03-14T15:00:19;14.77;;;2.90;;
18580;SDS011;9420;50.876;7.012;2023-03-14T15:02:49;15.57;;;3.30;;
18580;SDS011;9420;50.876;7.012;2023-03-14T15:05:22;27.47;;;4.40;;
18580;SDS011;9420;50.876;7.012;2023-03-14T15:07:51;12.93;;;3.17;;
18580;SDS011;9420;50.876;7.012;2023-03-14T15:10:20;10.57;;;2.13;;
18580;SDS011;9420;50.876;7.012;2023-03-14T15:12:50;17.50;;;2.73;;
18580;SDS011;9420;50.876;7.012;2023-03-14T15:15:19;16.13;;;2.73;;
18580;SDS011;9420;50.876;7.012;2023-03-14T15:17:46;9.93;;;2.10;;
18580;SDS011;9420;50.876;7.012;2023-03-14T15:20:14;20.17;;;3.37;;
18580;SDS011;9420;50.876;7.012;2023-03-14T15:22:45;10.93;;;2.23;;
18580;SDS011;9420;50.876;7.012;2023-03-14T15:25:13;9.60;;;2.93;;
18580;SDS011;9420;50.876;7.012;2023-03-14T15:27:40;15.87;;;3.27;;
18580;SDS011;9420;50.876;7.012;2023-03-14T15:30:09;10.73;;;2.17;;
18580;SDS011;9420;50.876;7.012;2023-03-14T15:32:39;15.53;;;2.73;;